createdAt,value
2018-11-11T00:00:51.186Z,10.50
2018-11-11T00:03:19.299Z,10.50
2018-11-11T00:05:47.393Z,10.50
2018-11-11T00:08:15.525Z,10.50
2018-11-11T00:10:43.625Z,10.50
2018-11-11T00:13:11.738Z,10.50
2018-11-11T00:15:39.867Z,10.50
2018-11-11T00:18:07.964Z,10.50
2018-11-11T00:20:36.058Z,10.50
2018-11-11T00:23:04.176Z,10.50
2018-11-11T00:25:32.302Z,10.50
2018-11-11T00:28:00.405Z,10.40
2018-11-11T00:30:28.521Z,10.40
2018-11-11T00:32:56.618Z,10.40
2018-11-11T00:35:24.718Z,10.50
2018-11-11T00:37:52.823Z,10.50
2018-11-11T00:40:20.914Z,10.50
2018-11-11T00:42:49.019Z,10.50
2018-11-11T00:45:17.126Z,10.40
2018-11-11T00:47:45.729Z,10.40
2018-11-11T00:50:13.827Z,10.40
2018-11-11T00:52:41.958Z,10.40
2018-11-11T00:55:12.270Z,10.40
2018-11-11T00:57:40.647Z,10.40
2018-11-11T01:00:18.887Z,10.30
2018-11-11T01:02:47.370Z,10.30
2018-11-11T01:05:15.830Z,10.30
2018-11-11T01:07:44.140Z,10.40
2018-11-11T01:10:13.947Z,10.30
2018-11-11T01:12:42.898Z,10.40
2018-11-11T01:15:12.582Z,10.30
2018-11-11T01:17:40.759Z,10.40
2018-11-11T01:20:10.596Z,10.40
2018-11-11T01:22:38.763Z,10.30
2018-11-11T01:25:08.775Z,10.30
2018-11-11T01:27:36.987Z,10.30
2018-11-11T01:30:05.232Z,10.30
2018-11-11T01:32:33.354Z,10.30
2018-11-11T01:35:01.858Z,10.30
2018-11-11T01:37:29.992Z,10.30
2018-11-11T01:39:58.115Z,10.30
2018-11-11T01:42:26.230Z,10.30
2018-11-11T01:44:54.362Z,10.20
2018-11-11T01:47:22.490Z,10.10
2018-11-11T01:49:50.663Z,10.20
2018-11-11T01:52:18.814Z,10.10
2018-11-11T01:54:46.939Z,10.10
2018-11-11T01:57:15.071Z,10.10
2018-11-11T01:59:43.210Z,10.10
2018-11-11T02:02:11.362Z,10.10
2018-11-11T02:04:39.499Z,10.10
2018-11-11T02:07:07.638Z,10.10
2018-11-11T02:09:35.804Z,10.10
2018-11-11T02:12:03.946Z,10.10
2018-11-11T02:14:32.091Z,10.00
2018-11-11T02:17:00.203Z,9.90
2018-11-11T02:19:28.322Z,9.90
2018-11-11T02:21:56.462Z,9.90
2018-11-11T02:24:24.591Z,9.90
2018-11-11T02:26:52.739Z,9.90
2018-11-11T02:29:20.857Z,9.90
2018-11-11T02:31:49.055Z,9.80
2018-11-11T02:34:17.174Z,9.80
2018-11-11T02:36:45.295Z,9.70
2018-11-11T02:39:13.423Z,9.80
2018-11-11T02:41:41.554Z,9.70
2018-11-11T02:44:09.670Z,9.70
2018-11-11T02:46:37.822Z,9.70
2018-11-11T02:49:05.945Z,9.70
2018-11-11T02:51:34.068Z,9.70
2018-11-11T02:54:02.230Z,9.70
2018-11-11T02:56:30.326Z,9.70
2018-11-11T02:58:58.538Z,9.70
2018-11-11T03:01:26.627Z,9.80
2018-11-11T03:03:54.739Z,9.80
2018-11-11T03:06:22.826Z,9.80
2018-11-11T03:08:50.943Z,9.80
2018-11-11T03:11:19.038Z,9.80
2018-11-11T03:13:47.150Z,9.80
2018-11-11T03:16:15.270Z,9.80
2018-11-11T03:18:43.385Z,9.80
2018-11-11T03:21:11.471Z,9.80
2018-11-11T03:23:39.619Z,9.80
2018-11-11T03:26:07.930Z,9.80
2018-11-11T03:28:36.072Z,9.70
2018-11-11T03:31:04.254Z,9.70
2018-11-11T03:33:32.347Z,9.70
2018-11-11T03:36:00.442Z,9.70
2018-11-11T03:38:28.579Z,9.70
2018-11-11T03:40:56.703Z,9.70
2018-11-11T03:43:24.799Z,9.80
2018-11-11T03:45:52.887Z,9.80
2018-11-11T03:48:21.031Z,9.80
2018-11-11T03:50:49.113Z,9.80
2018-11-11T03:53:17.227Z,9.80
2018-11-11T03:55:45.347Z,9.90
2018-11-11T03:58:13.443Z,9.90
2018-11-11T04:00:41.589Z,9.80
2018-11-11T04:03:09.723Z,9.90
2018-11-11T04:05:37.918Z,9.90
2018-11-11T04:08:06.062Z,9.80
2018-11-11T04:10:34.239Z,9.90
2018-11-11T04:13:02.334Z,9.90
2018-11-11T04:15:30.460Z,9.90
2018-11-11T04:17:58.602Z,9.90
2018-11-11T04:20:26.711Z,9.90
2018-11-11T04:22:54.823Z,9.90
2018-11-11T04:25:22.960Z,9.90
2018-11-11T04:27:51.083Z,9.80
2018-11-11T04:30:19.243Z,9.80
2018-11-11T04:32:47.386Z,9.80
2018-11-11T04:35:15.442Z,9.80
2018-11-11T04:37:43.543Z,9.80
2018-11-11T04:40:12.542Z,9.80
2018-11-11T04:42:40.631Z,9.70
2018-11-11T04:45:10.947Z,9.80
2018-11-11T04:47:39.071Z,9.70
2018-11-11T04:50:08.622Z,9.80
2018-11-11T04:52:36.713Z,9.70
2018-11-11T04:55:05.128Z,9.70
2018-11-11T04:57:33.241Z,9.70
2018-11-11T05:00:01.359Z,9.70
2018-11-11T05:02:29.458Z,9.70
2018-11-11T05:04:57.582Z,9.70
2018-11-11T05:07:25.719Z,9.70
2018-11-11T05:09:53.810Z,9.70
2018-11-11T05:12:21.919Z,9.70
2018-11-11T05:14:50.030Z,9.80
2018-11-11T05:17:18.138Z,9.80
2018-11-11T05:19:46.258Z,9.80
2018-11-11T05:22:14.354Z,9.80
2018-11-11T05:24:42.475Z,9.80
2018-11-11T05:27:10.590Z,9.80
2018-11-11T05:29:38.694Z,9.80
2018-11-11T05:32:06.869Z,9.90
2018-11-11T05:34:35.144Z,9.90
2018-11-11T05:37:03.292Z,9.90
2018-11-11T05:39:32.230Z,9.90
2018-11-11T05:42:00.323Z,9.90
2018-11-11T05:44:28.424Z,9.90
2018-11-11T05:46:56.633Z,9.90
2018-11-11T05:49:24.730Z,9.90
2018-11-11T05:51:52.822Z,9.90
2018-11-11T05:54:20.941Z,9.90
2018-11-11T05:56:49.068Z,9.90
2018-11-11T05:59:17.166Z,9.90
2018-11-11T06:01:45.274Z,9.90
2018-11-11T06:04:13.401Z,9.80
2018-11-11T06:06:41.547Z,9.80
2018-11-11T06:09:10.466Z,9.80
2018-11-11T06:11:39.133Z,9.80
2018-11-11T06:14:07.335Z,9.80
2018-11-11T06:16:35.572Z,9.70
2018-11-11T06:19:03.789Z,9.80
2018-11-11T06:21:31.902Z,9.70
2018-11-11T06:24:00.031Z,9.80
2018-11-11T06:26:28.158Z,9.70
2018-11-11T06:28:56.469Z,9.70
2018-11-11T06:31:24.574Z,9.70
2018-11-11T06:33:52.704Z,9.70
2018-11-11T06:36:20.825Z,9.70
2018-11-11T06:38:48.961Z,9.70
2018-11-11T06:41:17.079Z,9.70
2018-11-11T06:43:45.193Z,9.70
2018-11-11T06:46:13.317Z,9.70
2018-11-11T06:48:41.474Z,9.70
2018-11-11T06:51:09.599Z,9.70
2018-11-11T06:53:37.862Z,9.70
2018-11-11T06:56:06.017Z,9.70
2018-11-11T06:58:34.230Z,9.70
2018-11-11T07:01:02.327Z,9.80
2018-11-11T07:04:07.110Z,9.70
2018-11-11T07:06:35.291Z,9.70
2018-11-11T07:09:04.912Z,9.70
2018-11-11T07:11:33.043Z,9.70
2018-11-11T07:14:01.181Z,9.80
2018-11-11T07:16:29.246Z,9.80
2018-11-11T07:19:11.551Z,9.80
2018-11-11T07:21:39.654Z,9.80
2018-11-11T07:24:07.772Z,9.80
2018-11-11T07:26:35.901Z,9.80
2018-11-11T07:29:04.000Z,9.80
2018-11-11T07:31:32.135Z,9.80
2018-11-11T07:34:00.256Z,9.80
2018-11-11T07:36:28.361Z,9.80
2018-11-11T07:38:56.483Z,9.90
2018-11-11T07:41:24.677Z,9.90
2018-11-11T07:43:52.793Z,9.90
2018-11-11T07:46:20.914Z,9.90
2018-11-11T07:48:48.999Z,9.80
2018-11-11T07:51:17.095Z,9.80
2018-11-11T07:53:45.214Z,9.80
2018-11-11T07:56:13.355Z,9.90
2018-11-11T07:58:41.484Z,9.90
2018-11-11T08:01:09.627Z,9.90
2018-11-11T08:03:38.120Z,9.90
2018-11-11T08:06:06.246Z,9.90
2018-11-11T08:08:34.372Z,9.90
2018-11-11T08:11:14.011Z,9.90
2018-11-11T08:13:42.023Z,9.90
2018-11-11T08:16:10.168Z,9.90
2018-11-11T08:18:38.287Z,10.00
2018-11-11T08:21:06.406Z,10.00
2018-11-11T08:23:34.515Z,10.00
2018-11-11T08:26:02.605Z,10.00
2018-11-11T08:28:30.718Z,9.90
2018-11-11T08:30:58.802Z,10.00
2018-11-11T08:33:26.905Z,10.00
2018-11-11T08:35:55.049Z,10.10
2018-11-11T08:38:23.152Z,10.10
2018-11-11T08:40:51.263Z,10.10
2018-11-11T08:43:19.455Z,10.10
2018-11-11T08:45:47.555Z,10.10
2018-11-11T08:48:15.745Z,10.10
2018-11-11T08:50:43.802Z,10.10
2018-11-11T08:53:11.950Z,10.10
2018-11-11T08:55:40.091Z,10.10
2018-11-11T08:58:08.239Z,10.20
2018-11-11T09:00:36.360Z,10.20
2018-11-11T09:03:04.944Z,10.30
2018-11-11T09:05:33.058Z,10.30
2018-11-11T09:08:01.188Z,10.30
2018-11-11T09:10:29.340Z,10.30
2018-11-11T09:12:57.461Z,10.40
2018-11-11T09:15:25.606Z,10.40
2018-11-11T09:17:53.742Z,10.40
2018-11-11T09:20:21.886Z,10.40
2018-11-11T09:22:50.006Z,10.50
2018-11-11T09:25:18.140Z,10.40
2018-11-11T09:27:46.274Z,10.50
2018-11-11T09:30:15.335Z,10.60
2018-11-11T09:32:43.544Z,10.80
2018-11-11T09:35:11.746Z,10.70
2018-11-11T09:37:40.304Z,10.70
2018-11-11T09:40:09.327Z,10.70
2018-11-11T09:42:37.537Z,10.70
2018-11-11T09:45:08.296Z,10.80
2018-11-11T09:47:36.433Z,10.70
2018-11-11T09:50:06.882Z,10.80
2018-11-11T09:52:35.083Z,10.70
2018-11-11T09:55:03.187Z,10.70
2018-11-11T09:57:31.362Z,10.70
2018-11-11T09:59:59.550Z,10.80
2018-11-11T10:02:27.641Z,10.80
2018-11-11T10:04:59.229Z,10.90
2018-11-11T10:07:31.082Z,10.90
2018-11-11T10:10:06.043Z,11.00
2018-11-11T10:12:36.183Z,11.00
2018-11-11T10:15:16.609Z,11.00
2018-11-11T10:18:04.727Z,11.10
2018-11-11T10:20:35.769Z,11.10
2018-11-11T10:23:12.871Z,11.10
2018-11-11T10:26:44.994Z,11.10
2018-11-11T10:29:26.191Z,11.20
2018-11-11T10:32:04.748Z,11.20
2018-11-11T10:34:40.815Z,11.20
2018-11-11T10:37:15.625Z,11.20
2018-11-11T10:39:51.312Z,11.10
2018-11-11T10:43:25.688Z,11.10
2018-11-11T10:46:01.856Z,11.20
2018-11-11T10:48:38.264Z,11.30
2018-11-11T10:51:06.943Z,11.30
2018-11-11T10:53:35.195Z,11.20
2018-11-11T10:56:03.333Z,11.20
2018-11-11T10:58:31.530Z,11.20
2018-11-11T11:01:05.227Z,11.30
2018-11-11T11:03:34.525Z,11.30
2018-11-11T11:06:03.373Z,11.40
2018-11-11T11:08:31.700Z,11.30
2018-11-11T11:10:59.933Z,11.30
2018-11-11T11:13:29.026Z,11.40
2018-11-11T11:15:57.635Z,11.40
2018-11-11T11:18:25.798Z,11.30
2018-11-11T11:20:53.901Z,11.30
2018-11-11T11:23:22.023Z,11.30
2018-11-11T11:25:50.253Z,11.40
2018-11-11T11:28:18.233Z,11.50
2018-11-11T11:30:46.376Z,11.50
2018-11-11T11:33:14.496Z,11.60
2018-11-11T11:35:42.868Z,11.60
2018-11-11T11:38:11.015Z,11.60
2018-11-11T11:40:39.126Z,11.60
2018-11-11T11:43:07.252Z,11.60
2018-11-11T11:45:35.380Z,11.50
2018-11-11T11:48:03.481Z,11.60
2018-11-11T11:50:33.377Z,11.60
2018-11-11T11:53:01.510Z,11.70
2018-11-11T11:55:29.543Z,11.60
2018-11-11T11:58:09.540Z,11.60
2018-11-11T12:00:37.554Z,11.70
2018-11-11T12:03:05.788Z,11.70
2018-11-11T12:05:33.876Z,11.70
2018-11-11T12:08:02.018Z,11.80
2018-11-11T12:10:30.132Z,11.80
2018-11-11T12:12:58.239Z,11.80
2018-11-11T12:15:26.356Z,11.70
2018-11-11T12:17:54.459Z,11.70
2018-11-11T12:20:22.583Z,11.80
2018-11-11T12:22:50.679Z,11.70
2018-11-11T12:25:18.803Z,11.70
2018-11-11T12:27:46.902Z,11.80
2018-11-11T12:30:15.107Z,11.90
2018-11-11T12:32:43.203Z,11.90
2018-11-11T12:35:11.369Z,12.00
2018-11-11T12:37:39.479Z,12.00
2018-11-11T12:40:08.973Z,11.90
2018-11-11T12:42:36.863Z,12.00
2018-11-11T12:45:06.092Z,12.10
2018-11-11T12:47:34.318Z,12.10
2018-11-11T12:50:02.528Z,12.20
2018-11-11T12:52:30.614Z,12.20
2018-11-11T12:54:58.727Z,12.20
2018-11-11T12:57:26.840Z,12.20
2018-11-11T12:59:55.181Z,12.20
2018-11-11T13:02:23.455Z,12.20
2018-11-11T13:04:51.596Z,12.10
2018-11-11T13:07:19.718Z,12.10
2018-11-11T13:09:47.951Z,12.20
2018-11-11T13:12:16.197Z,12.20
2018-11-11T13:14:44.207Z,12.20
2018-11-11T13:17:12.323Z,12.20
2018-11-11T13:19:41.749Z,12.10
2018-11-11T13:22:10.001Z,12.10
2018-11-11T13:24:38.166Z,12.10
2018-11-11T13:27:06.557Z,11.90
2018-11-11T13:29:34.730Z,11.80
2018-11-11T13:32:03.033Z,11.90
2018-11-11T13:34:31.185Z,11.90
2018-11-11T13:36:59.535Z,11.90
2018-11-11T13:39:27.751Z,11.90
2018-11-11T13:41:56.673Z,11.90
2018-11-11T13:44:24.966Z,11.80
2018-11-11T13:46:53.167Z,11.80
2018-11-11T13:49:21.374Z,11.80
2018-11-11T13:51:49.684Z,11.70
2018-11-11T13:54:17.865Z,11.80
2018-11-11T13:56:46.026Z,11.70
2018-11-11T13:59:14.215Z,11.80
2018-11-11T14:01:42.502Z,11.80
2018-11-11T14:04:10.621Z,11.90
2018-11-11T14:06:38.945Z,11.80
2018-11-11T14:09:10.929Z,11.80
2018-11-11T14:11:39.193Z,11.70
2018-11-11T14:14:07.927Z,11.70
2018-11-11T14:16:36.240Z,11.70
2018-11-11T14:19:04.960Z,11.70
2018-11-11T14:21:33.659Z,11.60
2018-11-11T14:24:01.887Z,11.40
2018-11-11T14:26:30.309Z,11.30
2018-11-11T14:28:58.437Z,11.30
2018-11-11T14:31:27.621Z,11.30
2018-11-11T14:33:55.986Z,11.20
2018-11-11T14:36:24.256Z,11.20
2018-11-11T14:38:52.444Z,11.20
2018-11-11T14:41:20.741Z,11.20
2018-11-11T14:43:49.000Z,11.20
2018-11-11T14:46:17.392Z,11.10
2018-11-11T14:48:45.888Z,11.10
2018-11-11T14:51:14.073Z,11.00
2018-11-11T14:53:43.886Z,11.10
2018-11-11T14:56:12.421Z,11.10
2018-11-11T14:58:40.723Z,11.00
2018-11-11T15:01:09.628Z,11.00
2018-11-11T15:03:37.859Z,11.00
2018-11-11T15:06:06.165Z,11.00
2018-11-11T15:08:34.327Z,11.00
2018-11-11T15:11:02.553Z,11.00
2018-11-11T15:13:30.833Z,10.90
2018-11-11T15:15:59.125Z,10.90
2018-11-11T15:18:27.416Z,10.90
2018-11-11T15:20:55.997Z,10.90
2018-11-11T15:23:23.966Z,10.90
2018-11-11T15:25:52.223Z,10.90
2018-11-11T15:28:20.407Z,10.80
2018-11-11T15:30:48.681Z,10.80
2018-11-11T15:33:16.788Z,10.80
2018-11-11T15:35:45.118Z,10.80
2018-11-11T15:38:13.289Z,10.90
2018-11-11T15:40:41.464Z,10.90
2018-11-11T15:43:09.659Z,10.90
2018-11-11T15:45:37.943Z,10.80
2018-11-11T15:48:06.592Z,10.80
2018-11-11T15:50:35.712Z,10.80
2018-11-11T15:53:05.306Z,10.80
2018-11-11T15:55:34.809Z,10.80
2018-11-11T15:58:03.025Z,10.80
2018-11-11T16:00:32.548Z,10.80
2018-11-11T16:03:00.791Z,10.80
2018-11-11T16:05:29.014Z,10.80
2018-11-11T16:07:58.041Z,10.80
2018-11-11T16:10:28.340Z,10.80
2018-11-11T16:12:56.716Z,10.80
2018-11-11T16:15:27.788Z,10.70
2018-11-11T16:18:04.116Z,10.70
2018-11-11T16:20:34.261Z,10.70
2018-11-11T16:23:03.636Z,10.80
2018-11-11T16:25:31.927Z,10.80
2018-11-11T16:28:00.067Z,10.80
2018-11-11T16:30:30.508Z,10.70
2018-11-11T16:32:59.411Z,10.70
2018-11-11T16:35:28.495Z,10.70
2018-11-11T16:37:56.876Z,10.70
2018-11-11T16:40:27.212Z,10.70
2018-11-11T16:42:55.585Z,10.70
2018-11-11T16:45:25.930Z,10.70
2018-11-11T16:47:54.313Z,10.60
2018-11-11T16:50:25.756Z,10.60
2018-11-11T16:52:54.741Z,10.60
2018-11-11T16:55:24.430Z,10.60
2018-11-11T16:57:52.561Z,10.60
2018-11-11T17:00:23.269Z,10.60
2018-11-11T17:02:52.145Z,10.50
2018-11-11T17:05:23.466Z,10.60
2018-11-11T17:07:52.109Z,10.60
2018-11-11T17:10:23.523Z,10.60
2018-11-11T17:12:52.810Z,10.50
2018-11-11T17:15:22.689Z,10.50
2018-11-11T17:17:50.916Z,10.50
2018-11-11T17:20:20.285Z,10.50
2018-11-11T17:22:49.375Z,10.60
2018-11-11T17:25:18.497Z,10.60
2018-11-11T17:27:47.000Z,10.60
2018-11-11T17:30:17.380Z,10.60
2018-11-11T17:32:46.307Z,10.60
2018-11-11T17:35:14.481Z,10.60
2018-11-11T17:37:42.922Z,10.60
2018-11-11T17:40:14.143Z,10.60
2018-11-11T17:42:43.682Z,10.60
2018-11-11T17:45:12.364Z,10.70
2018-11-11T17:47:41.187Z,10.70
2018-11-11T17:50:11.377Z,10.70
2018-11-11T17:52:39.968Z,10.70
2018-11-11T17:55:08.460Z,10.70
2018-11-11T17:57:36.632Z,10.70
2018-11-11T18:00:05.509Z,10.70
2018-11-11T18:02:33.872Z,10.70
2018-11-11T18:05:02.037Z,10.70
2018-11-11T18:07:30.279Z,10.70
2018-11-11T18:09:58.505Z,10.60
2018-11-11T18:12:26.709Z,10.70
2018-11-11T18:14:55.154Z,10.60
2018-11-11T18:17:23.558Z,10.60
2018-11-11T18:19:51.673Z,10.60
2018-11-11T18:22:19.887Z,10.60
2018-11-11T18:24:48.106Z,10.60
2018-11-11T18:27:16.376Z,10.60
2018-11-11T18:29:44.485Z,10.70
2018-11-11T18:32:12.797Z,10.60
2018-11-11T18:34:41.025Z,10.60
2018-11-11T18:37:09.291Z,10.60
2018-11-11T18:39:37.599Z,10.70
2018-11-11T18:42:05.837Z,10.60
2018-11-11T18:44:34.052Z,10.60
2018-11-11T18:47:02.240Z,10.60
2018-11-11T18:49:30.512Z,10.60
2018-11-11T18:51:58.732Z,10.60
2018-11-11T18:54:26.945Z,10.60
2018-11-11T18:56:55.218Z,10.60
2018-11-11T18:59:23.360Z,10.50
2018-11-11T19:01:51.553Z,10.30
2018-11-11T19:04:19.860Z,10.20
2018-11-11T19:06:48.177Z,10.20
2018-11-11T19:09:16.406Z,10.20
2018-11-11T19:11:44.596Z,10.20
2018-11-11T19:14:12.794Z,10.20
2018-11-11T19:16:41.012Z,10.20
2018-11-11T19:19:09.180Z,10.20
2018-11-11T19:21:37.487Z,10.20
2018-11-11T19:24:05.624Z,10.20
2018-11-11T19:26:33.952Z,10.20
2018-11-11T19:29:02.192Z,10.30
2018-11-11T19:31:32.649Z,10.30
2018-11-11T19:34:01.030Z,10.20
2018-11-11T19:36:30.513Z,10.20
2018-11-11T19:39:01.074Z,10.20
2018-11-11T19:41:30.564Z,10.20
2018-11-11T19:43:58.731Z,10.20
2018-11-11T19:46:27.604Z,10.20
2018-11-11T19:48:59.197Z,10.20
2018-11-11T19:51:27.458Z,10.20
2018-11-11T19:53:55.689Z,10.10
2018-11-11T19:56:23.901Z,10.10
2018-11-11T19:58:52.105Z,10.10
2018-11-11T20:01:20.588Z,10.10
2018-11-11T20:03:49.167Z,10.10
2018-11-11T20:06:17.365Z,10.10
2018-11-11T20:08:45.604Z,10.10
2018-11-11T20:11:13.860Z,10.10
2018-11-11T20:13:42.043Z,10.00
2018-11-11T20:16:10.220Z,10.00
2018-11-11T20:18:38.403Z,10.00
2018-11-11T20:21:06.685Z,10.00
2018-11-11T20:23:34.954Z,10.00
2018-11-11T20:26:03.230Z,10.00
2018-11-11T20:28:31.489Z,10.00
2018-11-11T20:30:59.732Z,10.00
2018-11-11T20:33:27.938Z,10.00
2018-11-11T20:35:56.175Z,10.00
2018-11-11T20:38:24.425Z,10.00
2018-11-11T20:40:52.657Z,10.00
2018-11-11T20:43:21.040Z,9.90
2018-11-11T20:45:49.218Z,9.90
2018-11-11T20:48:17.495Z,9.90
2018-11-11T20:50:45.732Z,10.00
2018-11-11T20:53:16.910Z,10.00
2018-11-11T20:55:45.207Z,10.00
2018-11-11T20:58:13.342Z,10.10
2018-11-11T21:00:41.540Z,10.10
2018-11-11T21:03:09.752Z,10.10
2018-11-11T21:05:37.941Z,10.00
2018-11-11T21:08:06.614Z,10.00
2018-11-11T21:10:35.410Z,10.00
2018-11-11T21:13:04.916Z,9.90
2018-11-11T21:15:33.511Z,9.90
2018-11-11T21:18:01.755Z,9.90
2018-11-11T21:20:32.016Z,9.90
2018-11-11T21:23:00.276Z,9.90
2018-11-11T21:25:28.581Z,9.90
2018-11-11T21:27:56.725Z,9.90
2018-11-11T21:30:28.221Z,9.90
2018-11-11T21:32:56.432Z,9.90
2018-11-11T21:35:24.764Z,9.90
2018-11-11T21:37:53.047Z,9.90
2018-11-11T21:40:22.530Z,9.90
2018-11-11T21:42:51.533Z,10.00
2018-11-11T21:45:20.896Z,9.90
2018-11-11T21:47:49.160Z,9.90
2018-11-11T21:50:18.806Z,9.80
2018-11-11T21:52:52.260Z,9.80
2018-11-11T21:55:20.430Z,9.80
2018-11-11T21:57:48.614Z,9.80
2018-11-11T22:00:16.836Z,9.80
2018-11-11T22:02:45.084Z,9.80
2018-11-11T22:05:13.273Z,9.80
2018-11-11T22:07:41.590Z,9.80
2018-11-11T22:10:11.861Z,9.90
2018-11-11T22:12:40.096Z,9.90
2018-11-11T22:15:09.448Z,9.90
2018-11-11T22:17:37.783Z,9.80
2018-11-11T22:20:06.994Z,9.80
2018-11-11T22:22:35.284Z,9.80
2018-11-11T22:25:04.045Z,9.80
2018-11-11T22:27:32.265Z,9.80
2018-11-11T22:30:00.481Z,9.90
2018-11-11T22:32:28.705Z,9.80
2018-11-11T22:34:56.952Z,9.80
2018-11-11T22:37:25.204Z,9.80
2018-11-11T22:39:53.439Z,9.80
2018-11-11T22:42:21.812Z,9.80
2018-11-11T22:44:49.961Z,9.80
2018-11-11T22:47:18.209Z,9.90
2018-11-11T22:49:46.469Z,9.80
2018-11-11T22:52:14.678Z,9.80
2018-11-11T22:54:42.949Z,9.80
2018-11-11T22:57:11.188Z,9.80
2018-11-11T22:59:39.397Z,9.80
2018-11-11T23:02:07.609Z,9.80
2018-11-11T23:04:35.866Z,9.80
2018-11-11T23:07:04.107Z,9.80
2018-11-11T23:09:32.310Z,9.80
2018-11-11T23:12:00.527Z,9.80
2018-11-11T23:14:28.756Z,9.80
2018-11-11T23:16:56.973Z,9.80
2018-11-11T23:19:25.180Z,9.80
2018-11-11T23:21:53.395Z,9.80
2018-11-11T23:24:21.593Z,9.80
2018-11-11T23:26:49.852Z,9.80
2018-11-11T23:29:18.086Z,9.80
2018-11-11T23:31:46.366Z,9.80
2018-11-11T23:34:14.577Z,9.80
2018-11-11T23:36:42.880Z,9.80
2018-11-11T23:39:11.334Z,9.70
2018-11-11T23:41:39.549Z,9.70
2018-11-11T23:44:08.655Z,9.70
2018-11-11T23:46:37.390Z,9.70
2018-11-11T23:49:06.159Z,9.70
2018-11-11T23:51:34.419Z,9.80
2018-11-11T23:54:02.661Z,9.70
2018-11-11T23:56:30.872Z,9.70
2018-11-11T23:58:59.164Z,9.70
